createdAt,value
2022-09-28T00:02:26.785Z,6.73
2022-09-28T00:04:53.754Z,6.76
2022-09-28T00:07:20.627Z,6.71
2022-09-28T00:09:47.528Z,6.69
2022-09-28T00:12:14.720Z,6.68
2022-09-28T00:14:43.310Z,6.68
2022-09-28T00:17:12.251Z,6.68
2022-09-28T00:19:40.240Z,6.70
2022-09-28T00:22:07.267Z,6.69
2022-09-28T00:24:34.272Z,6.70
2022-09-28T00:27:02.906Z,6.70
2022-09-28T00:29:34.899Z,6.71
2022-09-28T00:32:04.826Z,6.72
2022-09-28T00:34:38.514Z,6.75
2022-09-28T00:37:06.594Z,6.78
2022-09-28T00:39:34.439Z,6.79
2022-09-28T00:42:02.307Z,6.81
2022-09-28T00:44:37.427Z,6.81
2022-09-28T00:47:10.367Z,6.80
2022-09-28T00:49:45.647Z,6.79
2022-09-28T00:52:16.249Z,6.76
2022-09-28T00:54:46.351Z,6.75
2022-09-28T00:57:14.064Z,6.78
2022-09-28T00:59:41.844Z,6.80
2022-09-28T01:02:10.715Z,6.80
2022-09-28T01:04:38.941Z,6.81
2022-09-28T01:07:09.024Z,6.81
2022-09-28T01:09:39.059Z,6.81
2022-09-28T01:12:06.407Z,6.79
2022-09-28T01:14:33.390Z,6.79
2022-09-28T01:17:09.738Z,6.78
2022-09-28T01:20:07.270Z,6.76
2022-09-28T01:23:13.292Z,6.77
2022-09-28T01:26:00.340Z,6.73
2022-09-28T01:28:31.204Z,6.76
2022-09-28T01:31:03.323Z,6.78
2022-09-28T01:34:10.468Z,6.80
2022-09-28T01:36:43.348Z,6.78
2022-09-28T01:39:14.828Z,6.79
2022-09-28T01:41:44.502Z,6.79
2022-09-28T01:44:15.268Z,6.76
2022-09-28T01:46:44.959Z,6.76
2022-09-28T01:49:31.203Z,6.77
2022-09-28T01:52:02.996Z,6.77
2022-09-28T01:54:47.532Z,6.75
2022-09-28T01:57:22.358Z,6.75
2022-09-28T02:00:10.817Z,6.72
2022-09-28T02:02:54.090Z,6.69
2022-09-28T02:05:36.167Z,6.71
2022-09-28T02:08:25.550Z,6.71
2022-09-28T02:11:00.771Z,6.69
2022-09-28T02:13:37.884Z,6.70
2022-09-28T02:16:28.096Z,6.63
2022-09-28T02:18:55.228Z,6.58
2022-09-28T02:21:32.903Z,6.59
2022-09-28T02:24:07.071Z,6.58
2022-09-28T02:26:41.242Z,6.57
2022-09-28T02:29:08.427Z,6.59
2022-09-28T02:31:36.132Z,6.58
2022-09-28T02:34:03.853Z,6.54
2022-09-28T02:36:31.389Z,6.58
2022-09-28T02:38:58.591Z,6.60
2022-09-28T02:41:44.101Z,6.57
2022-09-28T02:44:36.031Z,6.58
2022-09-28T02:47:33.383Z,6.57
2022-09-28T02:50:19.428Z,6.55
2022-09-28T02:53:15.172Z,6.53
2022-09-28T02:56:00.323Z,6.50
2022-09-28T02:58:44.351Z,6.51
2022-09-28T03:01:27.441Z,6.53
2022-09-28T03:04:11.571Z,6.54
2022-09-28T03:06:47.657Z,6.53
2022-09-28T03:09:23.147Z,6.57
2022-09-28T03:12:02.007Z,6.58
2022-09-28T03:14:29.290Z,6.60
2022-09-28T03:16:57.717Z,6.60
2022-09-28T03:19:29.586Z,6.62
2022-09-28T03:21:56.587Z,6.58
2022-09-28T03:24:23.780Z,6.60
2022-09-28T03:26:51.104Z,6.59
2022-09-28T03:29:20.341Z,6.57
2022-09-28T03:31:52.324Z,6.51
2022-09-28T03:34:23.403Z,6.50
2022-09-28T03:36:52.540Z,6.55
2022-09-28T03:39:19.708Z,6.55
2022-09-28T03:41:46.605Z,6.57
2022-09-28T03:44:13.979Z,6.55
2022-09-28T03:46:41.351Z,6.61
2022-09-28T03:49:10.322Z,6.66
2022-09-28T03:51:37.253Z,6.70
2022-09-28T03:54:04.538Z,6.73
2022-09-28T03:56:31.749Z,6.73
2022-09-28T03:58:58.730Z,6.71
2022-09-28T04:01:26.629Z,6.68
2022-09-28T04:03:55.974Z,6.64
2022-09-28T04:06:24.547Z,6.63
2022-09-28T04:08:56.596Z,6.60
2022-09-28T04:11:24.324Z,6.66
2022-09-28T04:13:51.373Z,6.66
2022-09-28T04:16:19.183Z,6.70
2022-09-28T04:19:05.984Z,6.69
2022-09-28T04:21:38.614Z,6.65
2022-09-28T04:24:11.451Z,6.68
2022-09-28T04:26:38.453Z,6.69
2022-09-28T04:29:18.767Z,6.73
2022-09-28T04:31:54.515Z,6.76
2022-09-28T04:34:35.149Z,6.76
2022-09-28T04:37:05.755Z,6.79
2022-09-28T04:39:32.706Z,6.76
2022-09-28T04:42:10.458Z,6.75
2022-09-28T04:44:38.931Z,6.77
2022-09-28T04:47:10.301Z,6.78
2022-09-28T04:49:55.793Z,6.74
2022-09-28T04:52:30.703Z,6.80
2022-09-28T04:54:57.703Z,6.79
2022-09-28T04:57:25.868Z,6.71
2022-09-28T04:59:52.771Z,6.72
2022-09-28T05:02:20.595Z,6.75
2022-09-28T05:05:06.424Z,6.80
2022-09-28T05:07:37.151Z,6.85
2022-09-28T05:10:06.568Z,6.86
2022-09-28T05:12:34.127Z,6.81
2022-09-28T05:15:01.145Z,6.81
2022-09-28T05:17:31.089Z,6.79
2022-09-28T05:20:10.709Z,6.80
2022-09-28T05:22:38.009Z,6.83
2022-09-28T05:25:09.079Z,6.87
2022-09-28T05:27:48.460Z,6.88
2022-09-28T05:30:35.450Z,6.87
2022-09-28T05:33:29.265Z,6.88
2022-09-28T05:36:11.535Z,6.91
2022-09-28T05:38:39.132Z,6.97
2022-09-28T05:41:06.939Z,7.01
2022-09-28T05:43:34.757Z,7.05
2022-09-28T05:46:05.408Z,7.09
2022-09-28T05:48:36.633Z,7.13
2022-09-28T05:51:04.149Z,7.11
2022-09-28T05:53:31.303Z,7.17
2022-09-28T05:55:59.583Z,7.19
2022-09-28T05:58:28.651Z,7.12
2022-09-28T06:00:57.129Z,7.15
2022-09-28T06:03:25.032Z,7.24
2022-09-28T06:05:52.123Z,7.31
2022-09-28T06:08:19.473Z,7.38
2022-09-28T06:10:59.832Z,7.48
2022-09-28T06:13:27.995Z,7.51
2022-09-28T06:15:55.115Z,7.60
2022-09-28T06:18:22.153Z,7.59
2022-09-28T06:21:15.193Z,7.63
2022-09-28T06:23:49.025Z,7.69
2022-09-28T06:26:18.913Z,7.71
2022-09-28T06:28:50.157Z,7.69
2022-09-28T06:31:18.905Z,7.64
2022-09-28T06:33:48.969Z,7.59
2022-09-28T06:36:18.950Z,7.52
2022-09-28T06:38:47.531Z,7.50
2022-09-28T06:41:15.306Z,7.59
2022-09-28T06:43:46.212Z,7.64
2022-09-28T06:46:16.784Z,7.72
2022-09-28T06:48:50.260Z,7.78
2022-09-28T06:51:36.947Z,7.82
2022-09-28T06:54:19.802Z,7.79
2022-09-28T06:56:58.114Z,7.74
2022-09-28T06:59:27.228Z,7.80
2022-09-28T07:01:54.730Z,7.90
2022-09-28T07:04:43.520Z,7.93
2022-09-28T07:07:31.747Z,8.04
2022-09-28T07:10:12.030Z,8.02
2022-09-28T07:13:02.686Z,8.02
2022-09-28T07:15:43.575Z,8.08
2022-09-28T07:18:13.582Z,7.99
2022-09-28T07:20:52.622Z,7.95
2022-09-28T07:23:21.172Z,8.02
2022-09-28T07:26:24.223Z,8.07
2022-09-28T07:29:11.135Z,8.04
2022-09-28T07:31:58.984Z,8.10
2022-09-28T07:34:29.545Z,8.19
2022-09-28T07:37:20.214Z,8.13
2022-09-28T07:40:07.616Z,8.08
2022-09-28T07:42:38.432Z,8.07
2022-09-28T07:45:07.067Z,8.25
2022-09-28T07:47:35.412Z,8.40
2022-09-28T07:50:28.857Z,8.51
2022-09-28T07:53:01.110Z,8.55
2022-09-28T07:55:40.167Z,8.53
2022-09-28T07:58:07.568Z,8.38
2022-09-28T08:00:51.127Z,8.26
2022-09-28T08:03:19.350Z,8.35
2022-09-28T08:05:47.559Z,8.40
2022-09-28T08:08:15.195Z,8.49
2022-09-28T08:10:46.949Z,8.49
2022-09-28T08:13:45.839Z,8.62
2022-09-28T08:16:20.474Z,8.73
2022-09-28T08:18:54.670Z,8.86
2022-09-28T08:21:41.950Z,8.93
2022-09-28T08:24:09.318Z,9.00
2022-09-28T08:26:36.390Z,9.08
2022-09-28T08:29:03.607Z,9.08
2022-09-28T08:31:52.749Z,9.00
2022-09-28T08:34:39.460Z,8.95
2022-09-28T08:37:20.442Z,9.01
2022-09-28T08:40:20.431Z,9.20
2022-09-28T08:43:23.211Z,9.38
2022-09-28T08:46:26.958Z,9.25
2022-09-28T08:49:26.523Z,8.99
2022-09-28T08:52:23.692Z,8.83
2022-09-28T08:55:31.432Z,8.73
2022-09-28T08:58:09.167Z,8.79
2022-09-28T09:00:43.194Z,8.99
2022-09-28T09:03:13.954Z,9.11
2022-09-28T09:05:52.213Z,9.13
2022-09-28T09:08:49.563Z,9.07
2022-09-28T09:11:45.796Z,9.20
2022-09-28T09:14:35.069Z,9.37
2022-09-28T09:17:33.548Z,9.47
2022-09-28T09:20:57.356Z,9.59
2022-09-28T09:23:39.899Z,9.57
2022-09-28T09:26:25.380Z,9.48
2022-09-28T09:29:30.154Z,9.47
2022-09-28T09:32:17.384Z,9.38
2022-09-28T09:35:13.033Z,9.30
2022-09-28T09:38:09.944Z,9.14
2022-09-28T09:41:16.801Z,9.10
2022-09-28T09:44:06.083Z,9.10
2022-09-28T09:47:07.943Z,9.09
2022-09-28T09:49:50.986Z,9.00
2022-09-28T09:52:30.271Z,8.94
2022-09-28T09:55:04.427Z,8.95
2022-09-28T09:57:58.060Z,9.05
2022-09-28T10:00:35.176Z,9.16
2022-09-28T10:03:21.650Z,9.23
2022-09-28T10:05:55.048Z,9.18
2022-09-28T10:08:23.946Z,9.15
2022-09-28T10:11:03.084Z,9.06
2022-09-28T10:13:33.051Z,9.04
2022-09-28T10:16:03.327Z,9.00
2022-09-28T10:18:36.619Z,8.90
2022-09-28T10:21:23.289Z,8.84
2022-09-28T10:24:28.697Z,8.80
2022-09-28T10:26:59.903Z,8.80
2022-09-28T10:29:27.172Z,8.86
2022-09-28T10:31:54.760Z,8.90
2022-09-28T10:34:30.098Z,8.93
2022-09-28T10:37:07.558Z,8.90
2022-09-28T10:39:56.163Z,8.93
2022-09-28T10:42:31.178Z,8.94
2022-09-28T10:45:05.350Z,8.97
2022-09-28T10:47:35.666Z,9.00
2022-09-28T10:50:21.021Z,9.02
2022-09-28T10:52:49.356Z,8.94
2022-09-28T10:56:06.370Z,8.99
2022-09-28T10:58:42.113Z,8.96
2022-09-28T11:01:23.206Z,9.00
2022-09-28T11:04:08.495Z,8.95
2022-09-28T11:06:41.537Z,8.92
2022-09-28T11:09:31.281Z,9.20
2022-09-28T11:12:06.230Z,9.26
2022-09-28T11:14:42.505Z,9.38
2022-09-28T11:17:27.736Z,9.40
2022-09-28T11:19:56.820Z,9.35
2022-09-28T11:22:37.370Z,9.30
2022-09-28T11:25:22.495Z,9.40
2022-09-28T11:27:52.423Z,9.42
2022-09-28T11:30:25.104Z,9.37
2022-09-28T11:33:20.335Z,9.20
2022-09-28T11:36:13.489Z,9.17
2022-09-28T11:39:02.785Z,9.20
2022-09-28T11:41:54.666Z,9.23
2022-09-28T11:44:38.706Z,9.27
2022-09-28T11:47:37.570Z,9.21
2022-09-28T11:50:23.675Z,9.16
2022-09-28T11:53:22.415Z,9.25
2022-09-28T11:56:08.508Z,9.18
2022-09-28T11:58:48.870Z,9.11
2022-09-28T12:01:19.598Z,9.09
2022-09-28T12:04:16.861Z,9.10
2022-09-28T12:07:26.140Z,9.11
2022-09-28T12:10:10.508Z,9.05
2022-09-28T12:12:45.871Z,9.01
2022-09-28T12:15:20.429Z,9.02
2022-09-28T12:17:54.911Z,9.05
2022-09-28T12:20:28.928Z,9.11
2022-09-28T12:23:17.634Z,9.15
2022-09-28T12:25:48.525Z,9.16
2022-09-28T12:28:33.512Z,9.14
2022-09-28T12:31:15.444Z,9.07
2022-09-28T12:33:46.873Z,9.12
2022-09-28T12:36:30.304Z,9.12
2022-09-28T12:39:17.502Z,9.08
2022-09-28T12:41:59.176Z,9.04
2022-09-28T12:44:58.576Z,9.01
2022-09-28T12:47:32.232Z,9.01
2022-09-28T12:53:15.034Z,9.01
2022-09-28T12:55:56.671Z,9.03
2022-09-28T12:58:50.864Z,9.15
2022-09-28T13:01:24.212Z,9.17
2022-09-28T13:04:00.381Z,9.16
2022-09-28T13:06:30.367Z,9.13
2022-09-28T13:09:25.006Z,9.07
2022-09-28T13:12:03.993Z,9.06
2022-09-28T13:14:33.908Z,9.01
2022-09-28T13:17:27.776Z,9.02
2022-09-28T13:19:58.589Z,9.02
2022-09-28T13:22:30.511Z,9.02
2022-09-28T13:25:04.442Z,9.04
2022-09-28T13:27:48.953Z,9.02
2022-09-28T13:30:19.529Z,9.04
2022-09-28T13:32:47.715Z,9.09
2022-09-28T13:35:19.492Z,9.06
2022-09-28T13:37:49.395Z,9.05
2022-09-28T13:40:16.356Z,9.01
2022-09-28T13:42:46.304Z,8.99
2022-09-28T13:45:22.357Z,8.96
2022-09-28T13:47:58.901Z,8.89
2022-09-28T13:50:50.740Z,8.87
2022-09-28T13:53:24.800Z,8.83
2022-09-28T13:56:03.550Z,8.83
2022-09-28T13:58:52.142Z,8.82
2022-09-28T14:01:22.938Z,8.81
2022-09-28T14:03:56.034Z,8.83
2022-09-28T14:06:27.188Z,8.88
2022-09-28T14:09:20.157Z,8.88
2022-09-28T14:12:01.345Z,8.89
2022-09-28T14:14:49.247Z,8.85
2022-09-28T14:17:20.032Z,8.80
2022-09-28T14:20:11.270Z,8.81
2022-09-28T14:22:50.620Z,8.78
2022-09-28T14:25:23.852Z,8.78
2022-09-28T14:28:01.878Z,8.78
2022-09-28T14:30:41.757Z,8.79
2022-09-28T14:33:20.848Z,8.74
2022-09-28T14:35:49.875Z,8.66
2022-09-28T14:38:44.161Z,8.59
2022-09-28T14:41:27.750Z,8.57
2022-09-28T14:44:08.224Z,8.58
2022-09-28T14:46:37.734Z,8.58
2022-09-28T14:49:21.936Z,8.58
2022-09-28T14:51:48.765Z,8.56
2022-09-28T14:54:20.299Z,8.53
2022-09-28T14:56:54.072Z,8.50
2022-09-28T14:59:26.176Z,8.44
2022-09-28T15:02:23.848Z,8.51
2022-09-28T15:05:17.189Z,8.49
2022-09-28T15:07:51.851Z,8.55
2022-09-28T15:10:31.597Z,8.54
2022-09-28T15:13:05.425Z,8.49
2022-09-28T15:15:39.060Z,8.48
2022-09-28T15:18:34.208Z,8.49
2022-09-28T15:21:06.975Z,8.44
2022-09-28T15:23:37.059Z,8.45
2022-09-28T15:26:07.241Z,8.43
2022-09-28T15:28:44.303Z,8.41
2022-09-28T15:31:18.010Z,8.40
2022-09-28T15:34:05.822Z,8.34
2022-09-28T15:36:38.038Z,8.37
2022-09-28T15:39:35.768Z,8.38
2022-09-28T15:42:09.157Z,8.29
2022-09-28T15:44:37.697Z,8.31
2022-09-28T15:47:26.442Z,8.32
2022-09-28T15:50:00.359Z,8.32
2022-09-28T15:52:41.006Z,8.36
2022-09-28T15:55:29.332Z,8.37
2022-09-28T15:58:26.489Z,8.36
2022-09-28T16:01:23.147Z,8.37
2022-09-28T16:03:52.352Z,8.34
2022-09-28T16:06:19.862Z,8.35
2022-09-28T16:09:30.273Z,8.38
2022-09-28T16:11:57.160Z,8.37
2022-09-28T16:14:26.336Z,8.35
2022-09-28T16:16:59.904Z,8.33
2022-09-28T16:19:37.566Z,8.34
2022-09-28T16:22:08.130Z,8.30
2022-09-28T16:24:39.339Z,8.28
2022-09-28T16:27:09.080Z,8.27
2022-09-28T16:29:42.954Z,8.29
2022-09-28T16:32:25.470Z,8.25
2022-09-28T16:35:28.138Z,8.23
2022-09-28T16:38:14.544Z,8.19
2022-09-28T16:40:48.111Z,8.17
2022-09-28T16:43:26.991Z,8.17
2022-09-28T16:46:00.050Z,8.17
2022-09-28T16:48:31.802Z,8.13
2022-09-28T16:50:59.583Z,8.16
2022-09-28T16:53:46.061Z,8.16
2022-09-28T16:56:13.683Z,8.16
2022-09-28T16:58:42.619Z,8.16
2022-09-28T17:01:12.081Z,8.13
2022-09-28T17:03:44.345Z,8.11
2022-09-28T17:06:12.406Z,8.13
2022-09-28T17:08:46.918Z,8.14
2022-09-28T17:11:21.491Z,8.11
2022-09-28T17:14:00.971Z,8.08
2022-09-28T17:17:06.274Z,8.10
2022-09-28T17:19:28.804Z,8.08
2022-09-28T17:21:56.103Z,8.09
2022-09-28T17:24:23.232Z,8.08
2022-09-28T17:26:51.537Z,8.08
2022-09-28T17:29:44.266Z,8.14
2022-09-28T17:32:17.783Z,8.09
2022-09-28T17:34:51.515Z,8.12
2022-09-28T17:37:23.241Z,8.09
2022-09-28T17:42:32.278Z,7.96
2022-09-28T17:45:03.593Z,8.03
2022-09-28T17:47:34.329Z,8.01
2022-09-28T17:50:35.449Z,7.88
2022-09-28T17:53:22.739Z,7.91
2022-09-28T17:55:51.858Z,7.84
2022-09-28T17:58:22.979Z,7.86
2022-09-28T18:00:51.520Z,7.84
2022-09-28T18:03:23.098Z,7.86
2022-09-28T18:05:58.407Z,7.87
2022-09-28T18:08:25.533Z,7.77
2022-09-28T18:10:52.694Z,7.81
2022-09-28T18:13:20.318Z,7.80
2022-09-28T18:15:53.139Z,7.79
2022-09-28T18:18:20.939Z,7.74
2022-09-28T18:20:47.833Z,7.70
2022-09-28T18:23:15.651Z,7.72
2022-09-28T18:25:44.559Z,7.75
2022-09-28T18:28:12.736Z,7.70
2022-09-28T18:30:45.010Z,7.70
2022-09-28T18:33:13.361Z,7.70
2022-09-28T18:35:40.613Z,7.61
2022-09-28T18:38:08.306Z,7.64
2022-09-28T18:40:36.194Z,7.62
2022-09-28T18:43:03.844Z,7.71
2022-09-28T18:45:31.303Z,7.59
2022-09-28T18:48:01.197Z,7.64
2022-09-28T18:50:28.224Z,7.61
2022-09-28T18:52:55.264Z,7.51
2022-09-28T18:55:22.434Z,7.65
2022-09-28T18:57:49.931Z,7.58
2022-09-28T19:00:17.498Z,7.63
2022-09-28T19:02:45.969Z,7.61
2022-09-28T19:05:14.388Z,7.68
2022-09-28T19:07:44.141Z,7.65
2022-09-28T19:10:11.464Z,7.65
2022-09-28T19:12:39.272Z,7.71
2022-09-28T19:15:06.968Z,7.68
2022-09-28T19:17:34.075Z,7.71
2022-09-28T19:20:01.372Z,7.70
2022-09-28T19:22:29.055Z,7.72
2022-09-28T19:24:56.261Z,7.67
2022-09-28T19:27:23.716Z,7.66
2022-09-28T19:29:51.615Z,7.68
2022-09-28T19:32:24.778Z,7.67
2022-09-28T19:34:52.016Z,7.69
2022-09-28T19:37:19.019Z,7.59
2022-09-28T19:39:46.144Z,7.60
2022-09-28T19:42:13.336Z,7.59
2022-09-28T19:44:40.557Z,7.59
2022-09-28T19:47:09.047Z,7.57
2022-09-28T19:49:39.634Z,7.56
2022-09-28T19:52:15.149Z,7.58
2022-09-28T19:54:48.568Z,7.59
2022-09-28T19:57:16.310Z,7.56
2022-09-28T19:59:43.896Z,7.55
2022-09-28T20:02:11.715Z,7.58
2022-09-28T20:04:39.000Z,7.59
2022-09-28T20:07:06.075Z,7.59
2022-09-28T20:09:33.458Z,7.55
2022-09-28T20:12:00.825Z,7.53
2022-09-28T20:14:32.866Z,7.50
2022-09-28T20:17:03.684Z,7.46
2022-09-28T20:19:30.960Z,7.47
2022-09-28T20:22:04.394Z,7.50
2022-09-28T20:24:32.808Z,7.48
2022-09-28T20:27:01.543Z,7.46
2022-09-28T20:29:31.797Z,7.44
2022-09-28T20:31:59.406Z,7.43
2022-09-28T20:34:26.552Z,7.41
2022-09-28T20:36:53.603Z,7.44
2022-09-28T20:39:20.952Z,7.38
2022-09-28T20:41:49.309Z,7.37
2022-09-28T20:44:16.466Z,7.37
2022-09-28T20:46:44.376Z,7.37
2022-09-28T20:49:11.698Z,7.35
2022-09-28T20:51:38.563Z,7.38
2022-09-28T20:54:05.801Z,7.40
2022-09-28T20:56:37.933Z,7.43
2022-09-28T20:59:10.439Z,7.43
2022-09-28T21:01:37.985Z,7.44
2022-09-28T21:04:07.110Z,7.43
2022-09-28T21:06:39.871Z,7.43
2022-09-28T21:09:07.881Z,7.41
2022-09-28T21:11:35.828Z,7.40
2022-09-28T21:14:06.353Z,7.42
2022-09-28T21:16:37.106Z,7.44
2022-09-28T21:19:04.630Z,7.44
2022-09-28T21:21:32.154Z,7.41
2022-09-28T21:23:59.609Z,7.39
2022-09-28T21:26:28.592Z,7.40
2022-09-28T21:28:58.093Z,7.40
2022-09-28T21:31:29.159Z,7.44
2022-09-28T21:33:58.645Z,7.42
2022-09-28T21:36:26.324Z,7.42
2022-09-28T21:38:55.245Z,7.36
2022-09-28T21:41:23.231Z,7.38
2022-09-28T21:43:50.480Z,7.40
2022-09-28T21:46:17.916Z,7.42
2022-09-28T21:48:45.155Z,7.43
2022-09-28T21:51:15.589Z,7.38
2022-09-28T21:53:42.886Z,7.38
2022-09-28T21:56:11.382Z,7.39
2022-09-28T21:58:38.881Z,7.42
2022-09-28T22:01:08.818Z,7.41
2022-09-28T22:03:36.580Z,7.38
2022-09-28T22:06:04.575Z,7.37
2022-09-28T22:08:31.981Z,7.37
2022-09-28T22:11:03.577Z,7.33
2022-09-28T22:13:33.761Z,7.34
2022-09-28T22:16:00.868Z,7.33
2022-09-28T22:18:29.124Z,7.34
2022-09-28T22:21:07.557Z,7.35
2022-09-28T22:23:37.080Z,7.37
2022-09-28T22:26:11.613Z,7.40
2022-09-28T22:28:39.813Z,7.43
2022-09-28T22:31:06.814Z,7.41
2022-09-28T22:33:34.256Z,7.43
2022-09-28T22:36:01.477Z,7.38
2022-09-28T22:38:31.971Z,7.42
2022-09-28T22:40:58.959Z,7.40
2022-09-28T22:43:27.187Z,7.41
2022-09-28T22:46:08.925Z,7.42
2022-09-28T22:48:36.225Z,7.40
2022-09-28T22:51:04.321Z,7.40
2022-09-28T22:53:31.299Z,7.40
2022-09-28T22:55:59.388Z,7.39
2022-09-28T22:58:26.594Z,7.36
2022-09-28T23:00:54.103Z,7.33
2022-09-28T23:03:21.959Z,7.35
2022-09-28T23:05:54.049Z,7.32
2022-09-28T23:08:47.416Z,7.36
2022-09-28T23:11:15.369Z,7.31
2022-09-28T23:13:42.954Z,7.30
2022-09-28T23:16:14.906Z,7.34
2022-09-28T23:18:48.991Z,7.34
2022-09-28T23:21:18.218Z,7.32
2022-09-28T23:23:46.111Z,7.36
2022-09-28T23:26:18.127Z,7.37
2022-09-28T23:28:45.419Z,7.40
2022-09-28T23:31:18.655Z,7.41
2022-09-28T23:33:46.255Z,7.42
2022-09-28T23:36:13.654Z,7.43
2022-09-28T23:38:40.658Z,7.39
2022-09-28T23:41:08.182Z,7.41
2022-09-28T23:43:36.278Z,7.42
2022-09-28T23:46:04.371Z,7.43
2022-09-28T23:48:31.393Z,7.43
2022-09-28T23:50:58.545Z,7.44
2022-09-28T23:53:25.654Z,7.42
2022-09-28T23:55:54.341Z,7.41
2022-09-28T23:58:21.379Z,7.40
